sensor_id;sensor_type;location;lat;lon;timestamp;temperature;humidity
43087;DHT22;28708;52.224;6.924;2023-07-29T00:01:43;18.80;99.90
43087;DHT22;28708;52.224;6.924;2023-07-29T00:04:09;18.70;99.90
43087;DHT22;28708;52.224;6.924;2023-07-29T00:06:35;18.80;99.90
43087;DHT22;28708;52.224;6.924;2023-07-29T00:09:02;18.80;99.90
43087;DHT22;28708;52.224;6.924;2023-07-29T00:11:28;18.80;99.90
43087;DHT22;28708;52.224;6.924;2023-07-29T00:13:53;18.80;99.90
43087;DHT22;28708;52.224;6.924;2023-07-29T00:16:20;18.60;99.90
43087;DHT22;28708;52.224;6.924;2023-07-29T00:18:48;18.50;99.90
43087;DHT22;28708;52.224;6.924;2023-07-29T00:21:14;18.30;99.90
43087;DHT22;28708;52.224;6.924;2023-07-29T00:23:39;18.40;99.90
43087;DHT22;28708;52.224;6.924;2023-07-29T00:26:05;18.40;99.90
43087;DHT22;28708;52.224;6.924;2023-07-29T00:28:31;18.30;99.90
43087;DHT22;28708;52.224;6.924;2023-07-29T00:30:58;18.20;99.90
43087;DHT22;28708;52.224;6.924;2023-07-29T00:33:24;18.30;99.90
43087;DHT22;28708;52.224;6.924;2023-07-29T00:35:50;18.30;99.90
43087;DHT22;28708;52.224;6.924;2023-07-29T00:38:16;18.30;99.90
43087;DHT22;28708;52.224;6.924;2023-07-29T00:40:41;18.30;99.90
43087;DHT22;28708;52.224;6.924;2023-07-29T00:43:07;18.30;99.90
43087;DHT22;28708;52.224;6.924;2023-07-29T00:45:35;18.30;99.90
43087;DHT22;28708;52.224;6.924;2023-07-29T00:48:02;18.30;99.90
43087;DHT22;28708;52.224;6.924;2023-07-29T00:50:29;18.40;99.90
43087;DHT22;28708;52.224;6.924;2023-07-29T00:52:59;18.40;99.90
43087;DHT22;28708;52.224;6.924;2023-07-29T00:55:25;18.30;99.90
43087;DHT22;28708;52.224;6.924;2023-07-29T00:57:54;18.30;99.90
43087;DHT22;28708;52.224;6.924;2023-07-29T01:00:21;18.30;99.90
43087;DHT22;28708;52.224;6.924;2023-07-29T01:02:47;18.20;99.90
43087;DHT22;28708;52.224;6.924;2023-07-29T01:05:14;18.20;99.90
43087;DHT22;28708;52.224;6.924;2023-07-29T01:07:58;18.20;99.90
43087;DHT22;28708;52.224;6.924;2023-07-29T01:10:48;18.20;99.90
43087;DHT22;28708;52.224;6.924;2023-07-29T01:13:37;18.20;99.90
43087;DHT22;28708;52.224;6.924;2023-07-29T01:16:24;18.10;99.90
43087;DHT22;28708;52.224;6.924;2023-07-29T01:18:52;18.10;99.90
43087;DHT22;28708;52.224;6.924;2023-07-29T01:21:19;18.10;99.90
43087;DHT22;28708;52.224;6.924;2023-07-29T01:23:46;18.00;99.90
43087;DHT22;28708;52.224;6.924;2023-07-29T01:26:12;18.00;99.90
43087;DHT22;28708;52.224;6.924;2023-07-29T01:28:38;18.00;99.90
43087;DHT22;28708;52.224;6.924;2023-07-29T01:31:15;18.10;99.90
43087;DHT22;28708;52.224;6.924;2023-07-29T01:33:59;18.10;99.90
43087;DHT22;28708;52.224;6.924;2023-07-29T01:36:29;18.00;99.90
43087;DHT22;28708;52.224;6.924;2023-07-29T01:38:57;18.00;99.90
43087;DHT22;28708;52.224;6.924;2023-07-29T01:41:24;18.10;99.90
43087;DHT22;28708;52.224;6.924;2023-07-29T01:43:50;18.00;99.90
43087;DHT22;28708;52.224;6.924;2023-07-29T01:46:17;18.10;99.90
43087;DHT22;28708;52.224;6.924;2023-07-29T01:48:43;18.10;99.90
43087;DHT22;28708;52.224;6.924;2023-07-29T01:51:11;18.10;99.90
43087;DHT22;28708;52.224;6.924;2023-07-29T01:53:37;18.20;99.90
43087;DHT22;28708;52.224;6.924;2023-07-29T01:56:03;18.20;99.90
43087;DHT22;28708;52.224;6.924;2023-07-29T01:58:29;18.20;99.90
43087;DHT22;28708;52.224;6.924;2023-07-29T02:00:55;18.20;99.90
43087;DHT22;28708;52.224;6.924;2023-07-29T02:03:21;18.20;99.90
43087;DHT22;28708;52.224;6.924;2023-07-29T02:05:47;18.10;99.90
43087;DHT22;28708;52.224;6.924;2023-07-29T02:08:12;18.10;99.90
43087;DHT22;28708;52.224;6.924;2023-07-29T02:10:39;18.20;99.90
43087;DHT22;28708;52.224;6.924;2023-07-29T02:13:05;18.20;99.90
43087;DHT22;28708;52.224;6.924;2023-07-29T02:15:30;18.10;99.90
43087;DHT22;28708;52.224;6.924;2023-07-29T02:17:56;18.00;99.90
43087;DHT22;28708;52.224;6.924;2023-07-29T02:20:22;18.00;99.90
43087;DHT22;28708;52.224;6.924;2023-07-29T02:22:49;18.00;99.90
43087;DHT22;28708;52.224;6.924;2023-07-29T02:25:15;18.00;99.90
43087;DHT22;28708;52.224;6.924;2023-07-29T02:27:40;18.00;99.90
43087;DHT22;28708;52.224;6.924;2023-07-29T02:30:06;17.90;99.90
43087;DHT22;28708;52.224;6.924;2023-07-29T02:32:35;17.90;99.90
43087;DHT22;28708;52.224;6.924;2023-07-29T02:35:00;17.90;99.90
43087;DHT22;28708;52.224;6.924;2023-07-29T02:37:26;17.90;99.90
43087;DHT22;28708;52.224;6.924;2023-07-29T02:39:52;18.00;99.90
43087;DHT22;28708;52.224;6.924;2023-07-29T02:42:18;18.00;99.90
43087;DHT22;28708;52.224;6.924;2023-07-29T02:44:43;18.00;99.90
43087;DHT22;28708;52.224;6.924;2023-07-29T02:47:09;18.00;99.90
43087;DHT22;28708;52.224;6.924;2023-07-29T02:49:35;18.00;99.90
43087;DHT22;28708;52.224;6.924;2023-07-29T02:52:01;18.00;99.90
43087;DHT22;28708;52.224;6.924;2023-07-29T02:54:26;18.00;99.90
43087;DHT22;28708;52.224;6.924;2023-07-29T02:56:53;18.00;99.90
43087;DHT22;28708;52.224;6.924;2023-07-29T02:59:19;18.10;99.90
43087;DHT22;28708;52.224;6.924;2023-07-29T03:01:45;18.10;99.90
43087;DHT22;28708;52.224;6.924;2023-07-29T03:04:11;18.10;99.90
43087;DHT22;28708;52.224;6.924;2023-07-29T03:06:38;18.00;99.90
43087;DHT22;28708;52.224;6.924;2023-07-29T03:09:04;18.00;99.90
43087;DHT22;28708;52.224;6.924;2023-07-29T03:11:30;18.00;99.90
43087;DHT22;28708;52.224;6.924;2023-07-29T03:13:57;17.90;99.90
43087;DHT22;28708;52.224;6.924;2023-07-29T03:16:23;17.90;99.90
43087;DHT22;28708;52.224;6.924;2023-07-29T03:18:53;17.90;99.90
43087;DHT22;28708;52.224;6.924;2023-07-29T03:21:18;17.90;99.90
43087;DHT22;28708;52.224;6.924;2023-07-29T03:23:44;17.90;99.90
43087;DHT22;28708;52.224;6.924;2023-07-29T03:26:10;18.00;99.90
43087;DHT22;28708;52.224;6.924;2023-07-29T03:28:39;18.00;99.90
43087;DHT22;28708;52.224;6.924;2023-07-29T03:31:05;18.10;99.90
43087;DHT22;28708;52.224;6.924;2023-07-29T03:33:31;18.00;99.90
43087;DHT22;28708;52.224;6.924;2023-07-29T03:35:57;18.00;99.90
43087;DHT22;28708;52.224;6.924;2023-07-29T03:38:23;18.00;99.90
43087;DHT22;28708;52.224;6.924;2023-07-29T03:40:49;18.00;99.90
43087;DHT22;28708;52.224;6.924;2023-07-29T03:43:14;18.00;99.90
43087;DHT22;28708;52.224;6.924;2023-07-29T03:45:41;18.00;99.90
43087;DHT22;28708;52.224;6.924;2023-07-29T03:48:07;18.10;99.90
43087;DHT22;28708;52.224;6.924;2023-07-29T03:50:36;18.10;99.90
43087;DHT22;28708;52.224;6.924;2023-07-29T03:53:03;18.10;99.90
43087;DHT22;28708;52.224;6.924;2023-07-29T03:55:29;18.00;99.90
43087;DHT22;28708;52.224;6.924;2023-07-29T03:58:01;18.10;99.90
43087;DHT22;28708;52.224;6.924;2023-07-29T04:00:27;18.00;99.90
43087;DHT22;28708;52.224;6.924;2023-07-29T04:02:53;17.90;99.90
43087;DHT22;28708;52.224;6.924;2023-07-29T04:05:19;17.90;99.90
43087;DHT22;28708;52.224;6.924;2023-07-29T04:07:45;17.90;99.90
43087;DHT22;28708;52.224;6.924;2023-07-29T04:10:11;17.90;99.90
43087;DHT22;28708;52.224;6.924;2023-07-29T04:12:37;17.90;99.90
43087;DHT22;28708;52.224;6.924;2023-07-29T04:15:03;18.00;99.90
43087;DHT22;28708;52.224;6.924;2023-07-29T04:17:29;18.00;99.90
43087;DHT22;28708;52.224;6.924;2023-07-29T04:19:55;18.10;99.90
43087;DHT22;28708;52.224;6.924;2023-07-29T04:22:24;18.10;99.90
43087;DHT22;28708;52.224;6.924;2023-07-29T04:24:49;18.10;99.90
43087;DHT22;28708;52.224;6.924;2023-07-29T04:27:15;18.20;99.90
43087;DHT22;28708;52.224;6.924;2023-07-29T04:29:41;18.20;99.90
43087;DHT22;28708;52.224;6.924;2023-07-29T04:32:06;18.10;99.90
43087;DHT22;28708;52.224;6.924;2023-07-29T04:34:32;18.00;99.90
43087;DHT22;28708;52.224;6.924;2023-07-29T04:36:59;18.00;99.90
43087;DHT22;28708;52.224;6.924;2023-07-29T04:39:25;18.10;99.90
43087;DHT22;28708;52.224;6.924;2023-07-29T04:41:51;18.00;99.90
43087;DHT22;28708;52.224;6.924;2023-07-29T04:44:16;18.20;99.90
43087;DHT22;28708;52.224;6.924;2023-07-29T04:46:42;18.10;99.90
43087;DHT22;28708;52.224;6.924;2023-07-29T04:49:08;18.10;99.90
43087;DHT22;28708;52.224;6.924;2023-07-29T04:51:34;18.10;99.90
43087;DHT22;28708;52.224;6.924;2023-07-29T04:54:00;18.20;99.90
43087;DHT22;28708;52.224;6.924;2023-07-29T04:56:26;18.10;99.90
43087;DHT22;28708;52.224;6.924;2023-07-29T04:58:52;18.00;99.90
43087;DHT22;28708;52.224;6.924;2023-07-29T05:01:18;18.10;99.90
43087;DHT22;28708;52.224;6.924;2023-07-29T05:03:44;18.10;99.90
43087;DHT22;28708;52.224;6.924;2023-07-29T05:06:11;18.10;99.90
43087;DHT22;28708;52.224;6.924;2023-07-29T05:08:37;18.10;99.90
43087;DHT22;28708;52.224;6.924;2023-07-29T05:11:02;18.10;99.90
43087;DHT22;28708;52.224;6.924;2023-07-29T05:13:28;18.10;99.90
43087;DHT22;28708;52.224;6.924;2023-07-29T05:15:54;18.10;99.90
43087;DHT22;28708;52.224;6.924;2023-07-29T05:18:20;18.20;99.90
43087;DHT22;28708;52.224;6.924;2023-07-29T05:20:47;18.20;99.90
43087;DHT22;28708;52.224;6.924;2023-07-29T05:23:13;18.20;99.90
43087;DHT22;28708;52.224;6.924;2023-07-29T05:25:38;18.20;99.90
43087;DHT22;28708;52.224;6.924;2023-07-29T05:28:04;18.20;99.90
43087;DHT22;28708;52.224;6.924;2023-07-29T05:30:32;18.20;99.90
43087;DHT22;28708;52.224;6.924;2023-07-29T05:32:59;18.20;99.90
43087;DHT22;28708;52.224;6.924;2023-07-29T05:35:25;18.30;99.90
43087;DHT22;28708;52.224;6.924;2023-07-29T05:37:51;18.30;99.90
43087;DHT22;28708;52.224;6.924;2023-07-29T05:40:17;18.20;99.90
43087;DHT22;28708;52.224;6.924;2023-07-29T05:42:43;18.30;99.90
43087;DHT22;28708;52.224;6.924;2023-07-29T05:45:11;18.30;99.90
43087;DHT22;28708;52.224;6.924;2023-07-29T05:47:37;18.40;99.90
43087;DHT22;28708;52.224;6.924;2023-07-29T05:50:03;18.50;99.90
43087;DHT22;28708;52.224;6.924;2023-07-29T05:52:30;18.50;99.90
43087;DHT22;28708;52.224;6.924;2023-07-29T05:54:56;18.40;99.90
43087;DHT22;28708;52.224;6.924;2023-07-29T05:57:22;18.50;99.90
43087;DHT22;28708;52.224;6.924;2023-07-29T05:59:48;18.50;99.90
43087;DHT22;28708;52.224;6.924;2023-07-29T06:02:14;18.50;99.90
43087;DHT22;28708;52.224;6.924;2023-07-29T06:04:39;18.40;99.90
43087;DHT22;28708;52.224;6.924;2023-07-29T06:07:07;18.50;99.90
43087;DHT22;28708;52.224;6.924;2023-07-29T06:09:33;18.40;99.90
43087;DHT22;28708;52.224;6.924;2023-07-29T06:11:58;18.50;99.90
43087;DHT22;28708;52.224;6.924;2023-07-29T06:14:24;18.50;99.90
43087;DHT22;28708;52.224;6.924;2023-07-29T06:16:50;18.50;99.90
43087;DHT22;28708;52.224;6.924;2023-07-29T06:19:15;18.50;99.90
43087;DHT22;28708;52.224;6.924;2023-07-29T06:21:41;18.50;99.90
43087;DHT22;28708;52.224;6.924;2023-07-29T06:24:07;18.40;99.90
43087;DHT22;28708;52.224;6.924;2023-07-29T06:26:33;18.40;99.90
43087;DHT22;28708;52.224;6.924;2023-07-29T06:28:58;18.50;99.90
43087;DHT22;28708;52.224;6.924;2023-07-29T06:31:24;18.40;99.90
43087;DHT22;28708;52.224;6.924;2023-07-29T06:33:50;18.40;99.90
43087;DHT22;28708;52.224;6.924;2023-07-29T06:36:16;18.50;99.90
43087;DHT22;28708;52.224;6.924;2023-07-29T06:38:41;18.60;99.90
43087;DHT22;28708;52.224;6.924;2023-07-29T06:41:07;18.60;99.90
43087;DHT22;28708;52.224;6.924;2023-07-29T06:43:33;18.60;99.90
43087;DHT22;28708;52.224;6.924;2023-07-29T06:45:59;18.60;99.90
43087;DHT22;28708;52.224;6.924;2023-07-29T06:48:24;18.60;99.90
43087;DHT22;28708;52.224;6.924;2023-07-29T06:50:50;18.70;99.90
43087;DHT22;28708;52.224;6.924;2023-07-29T06:53:16;18.60;99.90
43087;DHT22;28708;52.224;6.924;2023-07-29T06:55:43;18.40;99.90
43087;DHT22;28708;52.224;6.924;2023-07-29T06:58:09;18.50;99.90
43087;DHT22;28708;52.224;6.924;2023-07-29T07:00:35;18.50;99.90
43087;DHT22;28708;52.224;6.924;2023-07-29T07:03:00;18.60;99.90
43087;DHT22;28708;52.224;6.924;2023-07-29T07:05:26;18.60;99.90
43087;DHT22;28708;52.224;6.924;2023-07-29T07:07:52;18.40;99.90
43087;DHT22;28708;52.224;6.924;2023-07-29T07:10:18;18.50;99.90
43087;DHT22;28708;52.224;6.924;2023-07-29T07:12:43;18.50;99.90
43087;DHT22;28708;52.224;6.924;2023-07-29T07:15:09;18.70;99.90
43087;DHT22;28708;52.224;6.924;2023-07-29T07:17:35;18.60;99.90
43087;DHT22;28708;52.224;6.924;2023-07-29T07:20:01;18.80;99.90
43087;DHT22;28708;52.224;6.924;2023-07-29T07:22:27;18.70;99.90
43087;DHT22;28708;52.224;6.924;2023-07-29T07:24:53;18.90;99.90
43087;DHT22;28708;52.224;6.924;2023-07-29T07:27:18;18.90;99.90
43087;DHT22;28708;52.224;6.924;2023-07-29T07:29:44;18.80;99.90
43087;DHT22;28708;52.224;6.924;2023-07-29T07:32:10;18.80;99.90
43087;DHT22;28708;52.224;6.924;2023-07-29T07:34:35;18.80;99.90
43087;DHT22;28708;52.224;6.924;2023-07-29T07:37:01;19.10;99.90
43087;DHT22;28708;52.224;6.924;2023-07-29T07:39:29;19.10;99.90
43087;DHT22;28708;52.224;6.924;2023-07-29T07:41:55;19.10;99.90
43087;DHT22;28708;52.224;6.924;2023-07-29T07:44:22;19.10;99.90
43087;DHT22;28708;52.224;6.924;2023-07-29T07:46:47;19.20;99.90
43087;DHT22;28708;52.224;6.924;2023-07-29T07:49:14;19.30;99.90
43087;DHT22;28708;52.224;6.924;2023-07-29T07:51:39;19.20;99.90
43087;DHT22;28708;52.224;6.924;2023-07-29T07:54:08;19.20;99.90
43087;DHT22;28708;52.224;6.924;2023-07-29T07:56:34;19.10;99.90
43087;DHT22;28708;52.224;6.924;2023-07-29T07:59:00;19.20;99.90
43087;DHT22;28708;52.224;6.924;2023-07-29T08:01:25;19.10;99.90
43087;DHT22;28708;52.224;6.924;2023-07-29T08:03:51;19.30;99.90
43087;DHT22;28708;52.224;6.924;2023-07-29T08:06:20;19.50;99.90
43087;DHT22;28708;52.224;6.924;2023-07-29T08:08:45;19.50;99.90
43087;DHT22;28708;52.224;6.924;2023-07-29T08:11:14;19.40;99.90
43087;DHT22;28708;52.224;6.924;2023-07-29T08:13:40;19.60;99.90
43087;DHT22;28708;52.224;6.924;2023-07-29T08:16:06;19.80;99.90
43087;DHT22;28708;52.224;6.924;2023-07-29T08:18:33;19.70;99.90
43087;DHT22;28708;52.224;6.924;2023-07-29T08:21:00;19.70;99.90
43087;DHT22;28708;52.224;6.924;2023-07-29T08:23:33;19.90;99.90
43087;DHT22;28708;52.224;6.924;2023-07-29T08:26:05;20.10;99.90
43087;DHT22;28708;52.224;6.924;2023-07-29T08:28:33;20.10;99.90
43087;DHT22;28708;52.224;6.924;2023-07-29T08:30:59;20.20;99.90
43087;DHT22;28708;52.224;6.924;2023-07-29T08:33:25;20.20;99.90
43087;DHT22;28708;52.224;6.924;2023-07-29T08:35:51;20.50;99.90
43087;DHT22;28708;52.224;6.924;2023-07-29T08:38:16;21.00;99.90
43087;DHT22;28708;52.224;6.924;2023-07-29T08:43:38;21.80;99.90
43087;DHT22;28708;52.224;6.924;2023-07-29T08:46:06;23.00;99.90
43087;DHT22;28708;52.224;6.924;2023-07-29T08:48:42;23.10;99.90
43087;DHT22;28708;52.224;6.924;2023-07-29T08:51:10;23.90;99.90
43087;DHT22;28708;52.224;6.924;2023-07-29T08:53:37;23.10;99.90
43087;DHT22;28708;52.224;6.924;2023-07-29T08:56:03;22.70;99.90
43087;DHT22;28708;52.224;6.924;2023-07-29T08:58:30;22.30;99.90
43087;DHT22;28708;52.224;6.924;2023-07-29T09:00:56;21.90;99.90
43087;DHT22;28708;52.224;6.924;2023-07-29T09:03:22;22.10;99.90
43087;DHT22;28708;52.224;6.924;2023-07-29T09:05:48;21.60;99.90
43087;DHT22;28708;52.224;6.924;2023-07-29T09:08:14;21.90;99.90
43087;DHT22;28708;52.224;6.924;2023-07-29T09:10:41;22.40;99.90
43087;DHT22;28708;52.224;6.924;2023-07-29T09:13:07;23.40;99.90
43087;DHT22;28708;52.224;6.924;2023-07-29T09:15:36;24.00;99.90
43087;DHT22;28708;52.224;6.924;2023-07-29T09:18:10;23.90;99.90
43087;DHT22;28708;52.224;6.924;2023-07-29T09:20:36;23.80;99.90
43087;DHT22;28708;52.224;6.924;2023-07-29T09:23:02;24.60;99.90
43087;DHT22;28708;52.224;6.924;2023-07-29T09:25:29;25.90;99.90
43087;DHT22;28708;52.224;6.924;2023-07-29T09:28:02;24.30;99.90
43087;DHT22;28708;52.224;6.924;2023-07-29T09:30:32;23.30;99.90
43087;DHT22;28708;52.224;6.924;2023-07-29T09:32:59;22.30;99.90
43087;DHT22;28708;52.224;6.924;2023-07-29T09:35:30;21.90;99.90
43087;DHT22;28708;52.224;6.924;2023-07-29T09:37:56;21.50;99.90
43087;DHT22;28708;52.224;6.924;2023-07-29T09:40:22;21.50;99.90
43087;DHT22;28708;52.224;6.924;2023-07-29T09:42:54;21.40;99.90
43087;DHT22;28708;52.224;6.924;2023-07-29T09:45:25;21.60;99.90
43087;DHT22;28708;52.224;6.924;2023-07-29T09:47:52;21.30;99.90
43087;DHT22;28708;52.224;6.924;2023-07-29T09:50:18;21.20;99.90
43087;DHT22;28708;52.224;6.924;2023-07-29T09:52:44;21.20;99.90
43087;DHT22;28708;52.224;6.924;2023-07-29T09:55:13;21.60;99.90
43087;DHT22;28708;52.224;6.924;2023-07-29T09:57:43;21.80;99.90
43087;DHT22;28708;52.224;6.924;2023-07-29T10:00:11;21.70;99.90
43087;DHT22;28708;52.224;6.924;2023-07-29T10:02:42;21.40;99.90
43087;DHT22;28708;52.224;6.924;2023-07-29T10:05:09;21.30;99.90
43087;DHT22;28708;52.224;6.924;2023-07-29T10:07:37;21.40;99.90
43087;DHT22;28708;52.224;6.924;2023-07-29T10:10:04;21.30;99.90
43087;DHT22;28708;52.224;6.924;2023-07-29T10:12:31;21.10;99.90
43087;DHT22;28708;52.224;6.924;2023-07-29T10:15:03;20.90;99.90
43087;DHT22;28708;52.224;6.924;2023-07-29T10:17:30;21.00;99.90
43087;DHT22;28708;52.224;6.924;2023-07-29T10:19:57;21.10;99.90
43087;DHT22;28708;52.224;6.924;2023-07-29T10:22:28;21.20;99.90
43087;DHT22;28708;52.224;6.924;2023-07-29T10:25:03;21.90;99.90
43087;DHT22;28708;52.224;6.924;2023-07-29T10:27:40;23.00;99.90
43087;DHT22;28708;52.224;6.924;2023-07-29T10:30:08;23.30;99.90
43087;DHT22;28708;52.224;6.924;2023-07-29T10:32:34;22.40;99.90
43087;DHT22;28708;52.224;6.924;2023-07-29T10:35:00;22.40;99.90
43087;DHT22;28708;52.224;6.924;2023-07-29T10:37:26;22.10;99.90
43087;DHT22;28708;52.224;6.924;2023-07-29T10:39:53;22.20;99.90
43087;DHT22;28708;52.224;6.924;2023-07-29T10:42:19;22.20;99.90
43087;DHT22;28708;52.224;6.924;2023-07-29T10:44:46;23.00;99.90
43087;DHT22;28708;52.224;6.924;2023-07-29T10:47:24;23.20;99.90
43087;DHT22;28708;52.224;6.924;2023-07-29T10:49:56;23.30;99.90
43087;DHT22;28708;52.224;6.924;2023-07-29T10:55:00;23.60;99.90
43087;DHT22;28708;52.224;6.924;2023-07-29T10:57:39;24.10;99.90
43087;DHT22;28708;52.224;6.924;2023-07-29T11:00:07;22.80;99.90
43087;DHT22;28708;52.224;6.924;2023-07-29T11:02:37;22.80;99.90
43087;DHT22;28708;52.224;6.924;2023-07-29T11:05:21;23.60;99.90
43087;DHT22;28708;52.224;6.924;2023-07-29T11:07:51;23.60;99.90
43087;DHT22;28708;52.224;6.924;2023-07-29T11:10:17;23.30;99.90
43087;DHT22;28708;52.224;6.924;2023-07-29T11:12:51;24.00;99.90
43087;DHT22;28708;52.224;6.924;2023-07-29T11:15:26;24.50;99.90
43087;DHT22;28708;52.224;6.924;2023-07-29T11:18:00;25.50;99.90
43087;DHT22;28708;52.224;6.924;2023-07-29T11:20:30;24.00;99.90
43087;DHT22;28708;52.224;6.924;2023-07-29T11:23:01;24.30;99.90
43087;DHT22;28708;52.224;6.924;2023-07-29T11:25:29;25.10;99.90
43087;DHT22;28708;52.224;6.924;2023-07-29T11:27:57;23.60;99.90
43087;DHT22;28708;52.224;6.924;2023-07-29T11:30:27;23.10;99.90
43087;DHT22;28708;52.224;6.924;2023-07-29T11:32:53;23.00;99.90
43087;DHT22;28708;52.224;6.924;2023-07-29T11:35:20;23.20;99.90
43087;DHT22;28708;52.224;6.924;2023-07-29T11:37:48;22.90;99.90
43087;DHT22;28708;52.224;6.924;2023-07-29T11:40:19;22.80;99.90
43087;DHT22;28708;52.224;6.924;2023-07-29T11:42:47;22.60;99.90
43087;DHT22;28708;52.224;6.924;2023-07-29T11:45:14;22.60;99.90
43087;DHT22;28708;52.224;6.924;2023-07-29T11:47:40;22.30;99.90
43087;DHT22;28708;52.224;6.924;2023-07-29T11:50:13;22.30;99.90
43087;DHT22;28708;52.224;6.924;2023-07-29T11:52:46;22.20;99.90
43087;DHT22;28708;52.224;6.924;2023-07-29T11:55:13;22.20;99.90
43087;DHT22;28708;52.224;6.924;2023-07-29T11:57:40;21.90;99.90
43087;DHT22;28708;52.224;6.924;2023-07-29T12:00:08;22.00;99.90
43087;DHT22;28708;52.224;6.924;2023-07-29T12:02:37;22.00;99.90
43087;DHT22;28708;52.224;6.924;2023-07-29T12:05:07;22.10;99.90
43087;DHT22;28708;52.224;6.924;2023-07-29T12:07:34;22.30;99.90
43087;DHT22;28708;52.224;6.924;2023-07-29T12:10:01;22.30;99.90
43087;DHT22;28708;52.224;6.924;2023-07-29T12:12:28;22.70;99.90
43087;DHT22;28708;52.224;6.924;2023-07-29T12:14:54;23.40;99.90
43087;DHT22;28708;52.224;6.924;2023-07-29T12:17:23;23.20;99.90
43087;DHT22;28708;52.224;6.924;2023-07-29T12:19:49;23.30;99.90
43087;DHT22;28708;52.224;6.924;2023-07-29T12:22:18;23.10;99.90
43087;DHT22;28708;52.224;6.924;2023-07-29T12:24:45;22.80;99.90
43087;DHT22;28708;52.224;6.924;2023-07-29T12:27:14;22.70;99.90
43087;DHT22;28708;52.224;6.924;2023-07-29T12:29:43;22.70;99.90
43087;DHT22;28708;52.224;6.924;2023-07-29T12:32:10;23.00;99.90
43087;DHT22;28708;52.224;6.924;2023-07-29T12:34:36;22.70;99.90
43087;DHT22;28708;52.224;6.924;2023-07-29T12:37:03;22.70;99.90
43087;DHT22;28708;52.224;6.924;2023-07-29T12:39:32;22.80;99.90
43087;DHT22;28708;52.224;6.924;2023-07-29T12:42:00;22.70;99.90
43087;DHT22;28708;52.224;6.924;2023-07-29T12:44:29;22.60;99.90
43087;DHT22;28708;52.224;6.924;2023-07-29T12:46:55;22.60;99.90
43087;DHT22;28708;52.224;6.924;2023-07-29T12:49:21;22.50;99.90
43087;DHT22;28708;52.224;6.924;2023-07-29T12:51:48;22.40;99.90
43087;DHT22;28708;52.224;6.924;2023-07-29T12:54:14;22.30;99.90
43087;DHT22;28708;52.224;6.924;2023-07-29T12:56:39;22.40;99.90
43087;DHT22;28708;52.224;6.924;2023-07-29T12:59:06;22.50;99.90
43087;DHT22;28708;52.224;6.924;2023-07-29T13:01:35;22.40;99.90
43087;DHT22;28708;52.224;6.924;2023-07-29T13:04:00;22.10;99.90
43087;DHT22;28708;52.224;6.924;2023-07-29T13:06:26;22.00;99.90
43087;DHT22;28708;52.224;6.924;2023-07-29T13:08:52;22.00;99.90
43087;DHT22;28708;52.224;6.924;2023-07-29T13:11:17;22.00;99.90
43087;DHT22;28708;52.224;6.924;2023-07-29T13:13:43;21.80;99.90
43087;DHT22;28708;52.224;6.924;2023-07-29T13:16:11;21.80;99.90
43087;DHT22;28708;52.224;6.924;2023-07-29T13:18:38;21.80;99.90
43087;DHT22;28708;52.224;6.924;2023-07-29T13:21:03;21.60;99.90
43087;DHT22;28708;52.224;6.924;2023-07-29T13:23:29;21.30;99.90
43087;DHT22;28708;52.224;6.924;2023-07-29T13:25:56;21.30;99.90
43087;DHT22;28708;52.224;6.924;2023-07-29T13:28:21;21.00;99.90
43087;DHT22;28708;52.224;6.924;2023-07-29T13:30:47;20.90;99.90
43087;DHT22;28708;52.224;6.924;2023-07-29T13:33:13;20.80;99.90
43087;DHT22;28708;52.224;6.924;2023-07-29T13:35:39;20.70;99.90
43087;DHT22;28708;52.224;6.924;2023-07-29T13:38:04;20.70;99.90
43087;DHT22;28708;52.224;6.924;2023-07-29T13:40:31;20.70;99.90
43087;DHT22;28708;52.224;6.924;2023-07-29T13:42:57;20.90;99.90
43087;DHT22;28708;52.224;6.924;2023-07-29T13:45:23;21.00;99.90
43087;DHT22;28708;52.224;6.924;2023-07-29T13:47:49;20.80;99.90
43087;DHT22;28708;52.224;6.924;2023-07-29T13:50:16;21.10;99.90
43087;DHT22;28708;52.224;6.924;2023-07-29T13:52:42;21.50;99.90
43087;DHT22;28708;52.224;6.924;2023-07-29T13:55:08;22.20;99.90
43087;DHT22;28708;52.224;6.924;2023-07-29T13:57:33;22.40;99.90
43087;DHT22;28708;52.224;6.924;2023-07-29T13:59:59;22.80;99.90
43087;DHT22;28708;52.224;6.924;2023-07-29T14:02:25;22.10;99.90
43087;DHT22;28708;52.224;6.924;2023-07-29T14:04:59;21.90;99.90
43087;DHT22;28708;52.224;6.924;2023-07-29T14:07:25;22.20;99.90
43087;DHT22;28708;52.224;6.924;2023-07-29T14:09:50;22.60;99.90
43087;DHT22;28708;52.224;6.924;2023-07-29T14:12:16;22.90;99.90
43087;DHT22;28708;52.224;6.924;2023-07-29T14:14:42;22.70;99.90
43087;DHT22;28708;52.224;6.924;2023-07-29T14:17:08;22.70;99.90
43087;DHT22;28708;52.224;6.924;2023-07-29T14:19:34;22.90;99.90
43087;DHT22;28708;52.224;6.924;2023-07-29T14:22:00;23.10;99.90
43087;DHT22;28708;52.224;6.924;2023-07-29T14:24:26;23.30;99.90
43087;DHT22;28708;52.224;6.924;2023-07-29T14:26:51;23.20;99.90
43087;DHT22;28708;52.224;6.924;2023-07-29T14:29:17;23.40;99.90
43087;DHT22;28708;52.224;6.924;2023-07-29T14:31:43;23.60;99.90
43087;DHT22;28708;52.224;6.924;2023-07-29T14:34:09;23.40;99.90
43087;DHT22;28708;52.224;6.924;2023-07-29T14:36:35;23.20;99.90
43087;DHT22;28708;52.224;6.924;2023-07-29T14:39:00;22.90;99.90
43087;DHT22;28708;52.224;6.924;2023-07-29T14:41:26;22.70;99.90
43087;DHT22;28708;52.224;6.924;2023-07-29T14:43:52;22.80;99.90
43087;DHT22;28708;52.224;6.924;2023-07-29T14:46:17;22.80;99.90
43087;DHT22;28708;52.224;6.924;2023-07-29T14:48:43;22.50;99.90
43087;DHT22;28708;52.224;6.924;2023-07-29T14:51:09;22.20;99.90
43087;DHT22;28708;52.224;6.924;2023-07-29T14:53:34;22.00;99.90
43087;DHT22;28708;52.224;6.924;2023-07-29T14:56:00;22.20;99.90
43087;DHT22;28708;52.224;6.924;2023-07-29T14:58:26;22.10;99.90
43087;DHT22;28708;52.224;6.924;2023-07-29T15:00:52;22.10;99.90
43087;DHT22;28708;52.224;6.924;2023-07-29T15:03:18;22.00;99.90
43087;DHT22;28708;52.224;6.924;2023-07-29T15:05:43;22.10;99.90
43087;DHT22;28708;52.224;6.924;2023-07-29T15:08:09;22.30;99.90
43087;DHT22;28708;52.224;6.924;2023-07-29T15:10:35;22.00;99.90
43087;DHT22;28708;52.224;6.924;2023-07-29T15:13:01;22.00;99.90
43087;DHT22;28708;52.224;6.924;2023-07-29T15:15:27;22.30;99.90
43087;DHT22;28708;52.224;6.924;2023-07-29T15:17:53;22.30;99.90
43087;DHT22;28708;52.224;6.924;2023-07-29T15:20:19;22.10;99.90
43087;DHT22;28708;52.224;6.924;2023-07-29T15:22:44;21.50;99.90
43087;DHT22;28708;52.224;6.924;2023-07-29T15:25:10;21.80;99.90
43087;DHT22;28708;52.224;6.924;2023-07-29T15:27:37;22.30;99.90
43087;DHT22;28708;52.224;6.924;2023-07-29T15:30:05;22.60;99.90
43087;DHT22;28708;52.224;6.924;2023-07-29T15:32:31;22.40;99.90
43087;DHT22;28708;52.224;6.924;2023-07-29T15:34:56;22.20;99.90